sensor_id;sensor_type;location;lat;lon;timestamp;temperature;humidity
64198;SHT31;50512;53.666;9.700;2022-09-21T00:02:20;7.18;93.93
64198;SHT31;50512;53.666;9.700;2022-09-21T00:04:48;7.23;93.76
64198;SHT31;50512;53.666;9.700;2022-09-21T00:07:14;7.16;93.13
64198;SHT31;50512;53.666;9.700;2022-09-21T00:09:40;7.15;92.95
64198;SHT31;50512;53.666;9.700;2022-09-21T00:12:05;7.11;92.81
64198;SHT31;50512;53.666;9.700;2022-09-21T00:14:32;7.06;92.83
64198;SHT31;50512;53.666;9.700;2022-09-21T00:16:57;7.01;92.96
64198;SHT31;50512;53.666;9.700;2022-09-21T00:19:23;6.94;93.42
64198;SHT31;50512;53.666;9.700;2022-09-21T00:21:53;6.88;94.13
64198;SHT31;50512;53.666;9.700;2022-09-21T00:24:19;6.91;93.87
64198;SHT31;50512;53.666;9.700;2022-09-21T00:26:44;6.88;93.93
64198;SHT31;50512;53.666;9.700;2022-09-21T00:29:10;6.92;92.77
64198;SHT31;50512;53.666;9.700;2022-09-21T00:31:36;6.91;92.05
64198;SHT31;50512;53.666;9.700;2022-09-21T00:34:02;6.88;91.90
64198;SHT31;50512;53.666;9.700;2022-09-21T00:36:28;6.87;92.39
64198;SHT31;50512;53.666;9.700;2022-09-21T00:38:57;6.81;92.75
64198;SHT31;50512;53.666;9.700;2022-09-21T00:41:24;6.78;93.24
64198;SHT31;50512;53.666;9.700;2022-09-21T00:44:24;6.74;93.92
64198;SHT31;50512;53.666;9.700;2022-09-21T00:46:54;6.66;93.99
64198;SHT31;50512;53.666;9.700;2022-09-21T00:49:20;6.60;94.04
64198;SHT31;50512;53.666;9.700;2022-09-21T00:51:46;6.54;94.22
64198;SHT31;50512;53.666;9.700;2022-09-21T00:54:17;6.57;94.59
64198;SHT31;50512;53.666;9.700;2022-09-21T00:56:44;6.54;93.74
64198;SHT31;50512;53.666;9.700;2022-09-21T00:59:10;6.50;93.55
64198;SHT31;50512;53.666;9.700;2022-09-21T01:01:36;6.50;93.90
64198;SHT31;50512;53.666;9.700;2022-09-21T01:04:02;6.51;94.26
64198;SHT31;50512;53.666;9.700;2022-09-21T01:06:28;6.51;93.97
64198;SHT31;50512;53.666;9.700;2022-09-21T01:08:54;6.48;93.78
64198;SHT31;50512;53.666;9.700;2022-09-21T01:11:30;6.48;93.96
64198;SHT31;50512;53.666;9.700;2022-09-21T01:14:13;6.46;93.85
64198;SHT31;50512;53.666;9.700;2022-09-21T01:16:46;6.43;93.94
64198;SHT31;50512;53.666;9.700;2022-09-21T01:19:23;6.43;93.66
64198;SHT31;50512;53.666;9.700;2022-09-21T01:22:00;6.44;93.71
64198;SHT31;50512;53.666;9.700;2022-09-21T01:24:39;6.41;93.83
64198;SHT31;50512;53.666;9.700;2022-09-21T01:27:34;6.39;93.55
64198;SHT31;50512;53.666;9.700;2022-09-21T01:30:04;6.40;93.54
64198;SHT31;50512;53.666;9.700;2022-09-21T01:32:34;6.40;93.68
64198;SHT31;50512;53.666;9.700;2022-09-21T01:35:06;6.39;93.89
64198;SHT31;50512;53.666;9.700;2022-09-21T01:37:37;6.36;93.99
64198;SHT31;50512;53.666;9.700;2022-09-21T01:40:07;6.40;93.91
64198;SHT31;50512;53.666;9.700;2022-09-21T01:42:34;6.43;93.43
64198;SHT31;50512;53.666;9.700;2022-09-21T01:45:04;6.34;93.31
64198;SHT31;50512;53.666;9.700;2022-09-21T01:47:32;6.40;93.79
64198;SHT31;50512;53.666;9.700;2022-09-21T01:50:00;6.34;93.81
64198;SHT31;50512;53.666;9.700;2022-09-21T01:52:30;6.29;94.58
64198;SHT31;50512;53.666;9.700;2022-09-21T01:55:00;6.23;94.86
64198;SHT31;50512;53.666;9.700;2022-09-21T01:57:33;6.22;95.53
64198;SHT31;50512;53.666;9.700;2022-09-21T02:02:33;6.18;95.14
64198;SHT31;50512;53.666;9.700;2022-09-21T02:05:01;6.16;95.35
64198;SHT31;50512;53.666;9.700;2022-09-21T02:07:27;6.12;95.31
64198;SHT31;50512;53.666;9.700;2022-09-21T02:09:52;6.09;95.31
64198;SHT31;50512;53.666;9.700;2022-09-21T02:12:18;6.02;96.25
64198;SHT31;50512;53.666;9.700;2022-09-21T02:14:43;6.13;96.58
64198;SHT31;50512;53.666;9.700;2022-09-21T02:17:21;6.15;95.70
64198;SHT31;50512;53.666;9.700;2022-09-21T02:19:58;6.15;95.58
64198;SHT31;50512;53.666;9.700;2022-09-21T02:22:31;6.13;95.74
64198;SHT31;50512;53.666;9.700;2022-09-21T02:25:04;6.19;96.02
64198;SHT31;50512;53.666;9.700;2022-09-21T02:27:34;6.22;96.43
64198;SHT31;50512;53.666;9.700;2022-09-21T02:30:05;6.25;96.41
64198;SHT31;50512;53.666;9.700;2022-09-21T02:32:37;6.28;96.93
64198;SHT31;50512;53.666;9.700;2022-09-21T02:35:10;6.37;96.98
64198;SHT31;50512;53.666;9.700;2022-09-21T02:37:44;6.36;97.13
64198;SHT31;50512;53.666;9.700;2022-09-21T02:40:22;6.41;97.05
64198;SHT31;50512;53.666;9.700;2022-09-21T02:42:53;6.48;97.04
64198;SHT31;50512;53.666;9.700;2022-09-21T02:45:23;6.51;96.90
64198;SHT31;50512;53.666;9.700;2022-09-21T02:47:52;6.53;96.88
64198;SHT31;50512;53.666;9.700;2022-09-21T02:50:23;6.53;96.94
64198;SHT31;50512;53.666;9.700;2022-09-21T02:52:52;6.44;96.84
64198;SHT31;50512;53.666;9.700;2022-09-21T02:55:18;6.53;97.72
64198;SHT31;50512;53.666;9.700;2022-09-21T02:57:44;6.63;97.52
64198;SHT31;50512;53.666;9.700;2022-09-21T03:00:12;6.66;97.70
64198;SHT31;50512;53.666;9.700;2022-09-21T03:02:40;6.73;97.98
64198;SHT31;50512;53.666;9.700;2022-09-21T03:05:07;6.83;98.14
64198;SHT31;50512;53.666;9.700;2022-09-21T03:07:34;6.95;97.62
64198;SHT31;50512;53.666;9.700;2022-09-21T03:10:00;6.94;96.22
64198;SHT31;50512;53.666;9.700;2022-09-21T03:12:25;6.98;95.50
64198;SHT31;50512;53.666;9.700;2022-09-21T03:14:51;6.96;95.23
64198;SHT31;50512;53.666;9.700;2022-09-21T03:17:16;6.96;95.26
64198;SHT31;50512;53.666;9.700;2022-09-21T03:19:42;6.91;95.53
64198;SHT31;50512;53.666;9.700;2022-09-21T03:22:07;6.94;95.97
64198;SHT31;50512;53.666;9.700;2022-09-21T03:24:34;6.92;96.03
64198;SHT31;50512;53.666;9.700;2022-09-21T03:26:59;6.84;96.08
64198;SHT31;50512;53.666;9.700;2022-09-21T03:29:25;6.91;96.64
64198;SHT31;50512;53.666;9.700;2022-09-21T03:31:50;6.96;96.78
64198;SHT31;50512;53.666;9.700;2022-09-21T03:34:16;6.94;97.23
64198;SHT31;50512;53.666;9.700;2022-09-21T03:36:41;7.02;97.46
64198;SHT31;50512;53.666;9.700;2022-09-21T03:39:06;7.03;97.30
64198;SHT31;50512;53.666;9.700;2022-09-21T03:41:33;6.95;97.28
64198;SHT31;50512;53.666;9.700;2022-09-21T03:43:59;6.88;97.90
64198;SHT31;50512;53.666;9.700;2022-09-21T03:46:24;6.94;97.71
64198;SHT31;50512;53.666;9.700;2022-09-21T03:48:49;6.80;97.53
64198;SHT31;50512;53.666;9.700;2022-09-21T03:51:15;6.85;98.55
64198;SHT31;50512;53.666;9.700;2022-09-21T03:53:40;6.75;98.48
64198;SHT31;50512;53.666;9.700;2022-09-21T03:56:06;6.80;98.95
64198;SHT31;50512;53.666;9.700;2022-09-21T03:58:32;6.78;97.77
64198;SHT31;50512;53.666;9.700;2022-09-21T04:01:00;6.68;97.47
64198;SHT31;50512;53.666;9.700;2022-09-21T04:03:26;6.67;97.97
64198;SHT31;50512;53.666;9.700;2022-09-21T04:05:51;6.61;98.22
64198;SHT31;50512;53.666;9.700;2022-09-21T04:08:17;6.64;97.41
64198;SHT31;50512;53.666;9.700;2022-09-21T04:10:42;6.70;97.09
64198;SHT31;50512;53.666;9.700;2022-09-21T04:13:08;6.67;96.59
64198;SHT31;50512;53.666;9.700;2022-09-21T04:15:36;6.66;96.77
64198;SHT31;50512;53.666;9.700;2022-09-21T04:18:02;6.70;97.02
64198;SHT31;50512;53.666;9.700;2022-09-21T04:20:27;6.68;96.91
64198;SHT31;50512;53.666;9.700;2022-09-21T04:22:52;6.67;97.03
64198;SHT31;50512;53.666;9.700;2022-09-21T04:25:18;6.61;97.05
64198;SHT31;50512;53.666;9.700;2022-09-21T04:27:43;6.64;97.15
64198;SHT31;50512;53.666;9.700;2022-09-21T04:30:11;6.68;97.07
64198;SHT31;50512;53.666;9.700;2022-09-21T04:32:38;6.75;97.02
64198;SHT31;50512;53.666;9.700;2022-09-21T04:35:04;6.67;97.23
64198;SHT31;50512;53.666;9.700;2022-09-21T04:37:29;6.57;97.21
64198;SHT31;50512;53.666;9.700;2022-09-21T04:39:55;6.56;98.58
64198;SHT31;50512;53.666;9.700;2022-09-21T04:42:20;6.56;99.14
64198;SHT31;50512;53.666;9.700;2022-09-21T04:44:45;6.48;98.67
64198;SHT31;50512;53.666;9.700;2022-09-21T04:47:11;6.50;98.68
64198;SHT31;50512;53.666;9.700;2022-09-21T04:49:38;6.57;97.57
64198;SHT31;50512;53.666;9.700;2022-09-21T04:52:03;6.54;96.77
64198;SHT31;50512;53.666;9.700;2022-09-21T04:54:29;6.51;96.73
64198;SHT31;50512;53.666;9.700;2022-09-21T04:56:54;6.56;96.71
64198;SHT31;50512;53.666;9.700;2022-09-21T04:59:19;6.50;96.64
64198;SHT31;50512;53.666;9.700;2022-09-21T05:01:45;6.54;97.03
64198;SHT31;50512;53.666;9.700;2022-09-21T05:04:10;6.66;97.19
64198;SHT31;50512;53.666;9.700;2022-09-21T05:06:37;6.67;97.10
64198;SHT31;50512;53.666;9.700;2022-09-21T05:09:03;6.67;97.37
64198;SHT31;50512;53.666;9.700;2022-09-21T05:11:30;6.68;97.28
64198;SHT31;50512;53.666;9.700;2022-09-21T05:13:55;6.73;97.49
64198;SHT31;50512;53.666;9.700;2022-09-21T05:16:21;6.68;97.61
64198;SHT31;50512;53.666;9.700;2022-09-21T05:18:46;6.57;97.36
64198;SHT31;50512;53.666;9.700;2022-09-21T05:21:12;6.63;98.27
64198;SHT31;50512;53.666;9.700;2022-09-21T05:23:40;6.60;98.82
64198;SHT31;50512;53.666;9.700;2022-09-21T05:26:05;6.71;99.97
64198;SHT31;50512;53.666;9.700;2022-09-21T05:28:32;6.83;99.80
64198;SHT31;50512;53.666;9.700;2022-09-21T05:31:02;6.91;99.99
64198;SHT31;50512;53.666;9.700;2022-09-21T05:33:29;6.92;99.77
64198;SHT31;50512;53.666;9.700;2022-09-21T05:36:03;6.96;99.63
64198;SHT31;50512;53.666;9.700;2022-09-21T05:38:32;7.02;99.69
64198;SHT31;50512;53.666;9.700;2022-09-21T05:41:00;7.05;99.53
64198;SHT31;50512;53.666;9.700;2022-09-21T05:43:26;7.06;99.25
64198;SHT31;50512;53.666;9.700;2022-09-21T05:45:57;7.03;99.02
64198;SHT31;50512;53.666;9.700;2022-09-21T05:48:28;7.06;98.74
64198;SHT31;50512;53.666;9.700;2022-09-21T05:50:58;7.03;98.77
64198;SHT31;50512;53.666;9.700;2022-09-21T05:53:40;7.06;98.84
64198;SHT31;50512;53.666;9.700;2022-09-21T05:56:17;7.15;98.47
64198;SHT31;50512;53.666;9.700;2022-09-21T05:58:46;7.16;97.88
64198;SHT31;50512;53.666;9.700;2022-09-21T06:01:20;7.20;97.15
64198;SHT31;50512;53.666;9.700;2022-09-21T06:03:50;7.30;96.55
64198;SHT31;50512;53.666;9.700;2022-09-21T06:06:17;7.33;96.66
64198;SHT31;50512;53.666;9.700;2022-09-21T06:08:43;7.44;96.86
64198;SHT31;50512;53.666;9.700;2022-09-21T06:11:08;7.53;96.73
64198;SHT31;50512;53.666;9.700;2022-09-21T06:13:35;7.60;96.73
64198;SHT31;50512;53.666;9.700;2022-09-21T06:16:01;7.63;96.94
64198;SHT31;50512;53.666;9.700;2022-09-21T06:18:26;7.71;96.76
64198;SHT31;50512;53.666;9.700;2022-09-21T06:20:52;7.79;97.28
64198;SHT31;50512;53.666;9.700;2022-09-21T06:23:17;7.91;97.69
64198;SHT31;50512;53.666;9.700;2022-09-21T06:25:43;7.98;97.40
64198;SHT31;50512;53.666;9.700;2022-09-21T06:28:10;7.92;96.87
64198;SHT31;50512;53.666;9.700;2022-09-21T06:30:37;8.03;97.36
64198;SHT31;50512;53.666;9.700;2022-09-21T06:33:04;8.06;97.59
64198;SHT31;50512;53.666;9.700;2022-09-21T06:35:32;8.10;97.36
64198;SHT31;50512;53.666;9.700;2022-09-21T06:37:58;8.21;97.26
64198;SHT31;50512;53.666;9.700;2022-09-21T06:40:25;8.30;97.20
64198;SHT31;50512;53.666;9.700;2022-09-21T06:42:54;8.37;96.87
64198;SHT31;50512;53.666;9.700;2022-09-21T06:45:20;8.46;96.76
64198;SHT31;50512;53.666;9.700;2022-09-21T06:47:47;8.50;96.50
64198;SHT31;50512;53.666;9.700;2022-09-21T06:50:12;8.50;96.30
64198;SHT31;50512;53.666;9.700;2022-09-21T06:52:38;8.59;96.31
64198;SHT31;50512;53.666;9.700;2022-09-21T06:55:04;8.64;96.58
64198;SHT31;50512;53.666;9.700;2022-09-21T06:57:30;8.68;96.54
64198;SHT31;50512;53.666;9.700;2022-09-21T06:59:55;8.70;96.42
64198;SHT31;50512;53.666;9.700;2022-09-21T07:02:21;8.87;96.80
64198;SHT31;50512;53.666;9.700;2022-09-21T07:04:48;8.93;96.36
64198;SHT31;50512;53.666;9.700;2022-09-21T07:07:13;9.05;96.17
64198;SHT31;50512;53.666;9.700;2022-09-21T07:09:39;9.14;95.94
64198;SHT31;50512;53.666;9.700;2022-09-21T07:12:05;9.15;95.37
64198;SHT31;50512;53.666;9.700;2022-09-21T07:14:30;9.27;95.63
64198;SHT31;50512;53.666;9.700;2022-09-21T07:16:56;9.42;95.68
64198;SHT31;50512;53.666;9.700;2022-09-21T07:19:21;9.30;94.07
64198;SHT31;50512;53.666;9.700;2022-09-21T07:21:48;9.55;95.94
64198;SHT31;50512;53.666;9.700;2022-09-21T07:24:13;9.69;95.45
64198;SHT31;50512;53.666;9.700;2022-09-21T07:26:39;9.87;96.02
64198;SHT31;50512;53.666;9.700;2022-09-21T07:29:04;10.01;94.92
64198;SHT31;50512;53.666;9.700;2022-09-21T07:31:30;10.13;94.92
64198;SHT31;50512;53.666;9.700;2022-09-21T07:33:56;10.09;94.36
64198;SHT31;50512;53.666;9.700;2022-09-21T07:36:22;10.19;95.01
64198;SHT31;50512;53.666;9.700;2022-09-21T07:38:49;10.32;94.33
64198;SHT31;50512;53.666;9.700;2022-09-21T07:41:14;10.54;94.59
64198;SHT31;50512;53.666;9.700;2022-09-21T07:43:40;10.74;94.10
64198;SHT31;50512;53.666;9.700;2022-09-21T07:46:06;10.75;93.77
64198;SHT31;50512;53.666;9.700;2022-09-21T07:48:32;10.84;92.04
64198;SHT31;50512;53.666;9.700;2022-09-21T07:51:01;10.70;92.15
64198;SHT31;50512;53.666;9.700;2022-09-21T07:53:26;10.68;92.60
64198;SHT31;50512;53.666;9.700;2022-09-21T07:55:59;10.63;93.23
64198;SHT31;50512;53.666;9.700;2022-09-21T07:58:25;10.52;93.52
64198;SHT31;50512;53.666;9.700;2022-09-21T08:00:50;10.59;94.24
64198;SHT31;50512;53.666;9.700;2022-09-21T08:03:16;10.65;94.70
64198;SHT31;50512;53.666;9.700;2022-09-21T08:05:41;10.77;94.53
64198;SHT31;50512;53.666;9.700;2022-09-21T08:08:06;10.84;93.68
64198;SHT31;50512;53.666;9.700;2022-09-21T08:10:32;10.88;94.06
64198;SHT31;50512;53.666;9.700;2022-09-21T08:12:59;11.08;94.22
64198;SHT31;50512;53.666;9.700;2022-09-21T08:15:24;11.20;93.72
64198;SHT31;50512;53.666;9.700;2022-09-21T08:17:50;11.29;93.59
64198;SHT31;50512;53.666;9.700;2022-09-21T08:20:15;11.36;93.76
64198;SHT31;50512;53.666;9.700;2022-09-21T08:22:41;11.59;93.64
64198;SHT31;50512;53.666;9.700;2022-09-21T08:25:07;11.83;92.61
64198;SHT31;50512;53.666;9.700;2022-09-21T08:27:32;11.84;91.84
64198;SHT31;50512;53.666;9.700;2022-09-21T08:29:59;11.91;91.35
64198;SHT31;50512;53.666;9.700;2022-09-21T08:32:24;11.91;91.88
64198;SHT31;50512;53.666;9.700;2022-09-21T08:34:50;11.92;91.78
64198;SHT31;50512;53.666;9.700;2022-09-21T08:37:15;12.01;92.09
64198;SHT31;50512;53.666;9.700;2022-09-21T08:39:41;12.11;91.74
64198;SHT31;50512;53.666;9.700;2022-09-21T08:42:29;12.29;92.62
64198;SHT31;50512;53.666;9.700;2022-09-21T08:45:00;12.50;91.41
64198;SHT31;50512;53.666;9.700;2022-09-21T08:47:34;13.32;90.07
64198;SHT31;50512;53.666;9.700;2022-09-21T08:50:02;13.88;86.66
64198;SHT31;50512;53.666;9.700;2022-09-21T08:52:28;14.43;84.45
64198;SHT31;50512;53.666;9.700;2022-09-21T08:54:58;15.15;82.32
64198;SHT31;50512;53.666;9.700;2022-09-21T08:57:28;15.89;80.50
64198;SHT31;50512;53.666;9.700;2022-09-21T08:59:53;16.72;78.29
64198;SHT31;50512;53.666;9.700;2022-09-21T09:02:37;17.23;75.28
64198;SHT31;50512;53.666;9.700;2022-09-21T09:05:16;18.03;73.06
64198;SHT31;50512;53.666;9.700;2022-09-21T09:07:55;18.65;70.08
64198;SHT31;50512;53.666;9.700;2022-09-21T09:10:34;18.92;67.59
64198;SHT31;50512;53.666;9.700;2022-09-21T09:13:09;19.16;67.98
64198;SHT31;50512;53.666;9.700;2022-09-21T09:15:50;19.42;68.22
64198;SHT31;50512;53.666;9.700;2022-09-21T09:18:23;19.63;67.66
64198;SHT31;50512;53.666;9.700;2022-09-21T09:20:56;19.68;65.94
64198;SHT31;50512;53.666;9.700;2022-09-21T09:23:24;19.55;66.10
64198;SHT31;50512;53.666;9.700;2022-09-21T09:25:55;19.66;67.50
64198;SHT31;50512;53.666;9.700;2022-09-21T09:28:27;19.93;65.25
64198;SHT31;50512;53.666;9.700;2022-09-21T09:30:59;20.05;64.30
64198;SHT31;50512;53.666;9.700;2022-09-21T09:33:30;20.06;63.51
64198;SHT31;50512;53.666;9.700;2022-09-21T09:36:01;20.14;64.39
64198;SHT31;50512;53.666;9.700;2022-09-21T09:38:29;20.30;61.89
64198;SHT31;50512;53.666;9.700;2022-09-21T09:41:09;20.21;62.22
64198;SHT31;50512;53.666;9.700;2022-09-21T09:43:47;19.89;63.61
64198;SHT31;50512;53.666;9.700;2022-09-21T09:46:18;19.20;62.24
64198;SHT31;50512;53.666;9.700;2022-09-21T09:49:07;18.69;64.93
64198;SHT31;50512;53.666;9.700;2022-09-21T09:51:34;18.20;67.20
64198;SHT31;50512;53.666;9.700;2022-09-21T09:53:59;18.04;68.81
64198;SHT31;50512;53.666;9.700;2022-09-21T09:56:25;17.91;69.30
64198;SHT31;50512;53.666;9.700;2022-09-21T09:58:53;17.72;67.89
64198;SHT31;50512;53.666;9.700;2022-09-21T10:01:38;17.70;67.92
64198;SHT31;50512;53.666;9.700;2022-09-21T10:04:06;17.61;66.34
64198;SHT31;50512;53.666;9.700;2022-09-21T10:06:33;17.14;67.32
64198;SHT31;50512;53.666;9.700;2022-09-21T10:08:58;17.32;68.92
64198;SHT31;50512;53.666;9.700;2022-09-21T10:11:33;17.46;69.33
64198;SHT31;50512;53.666;9.700;2022-09-21T10:14:05;17.53;69.17
64198;SHT31;50512;53.666;9.700;2022-09-21T10:16:31;17.65;69.22
64198;SHT31;50512;53.666;9.700;2022-09-21T10:18:57;17.70;70.45
64198;SHT31;50512;53.666;9.700;2022-09-21T10:21:26;17.62;69.25
64198;SHT31;50512;53.666;9.700;2022-09-21T10:23:56;17.68;68.85
64198;SHT31;50512;53.666;9.700;2022-09-21T10:26:22;17.58;67.86
64198;SHT31;50512;53.666;9.700;2022-09-21T10:28:56;17.49;68.67
64198;SHT31;50512;53.666;9.700;2022-09-21T10:31:23;17.48;69.77
64198;SHT31;50512;53.666;9.700;2022-09-21T10:33:51;17.62;70.89
64198;SHT31;50512;53.666;9.700;2022-09-21T10:36:36;17.68;70.85
64198;SHT31;50512;53.666;9.700;2022-09-21T10:39:22;17.66;69.88
64198;SHT31;50512;53.666;9.700;2022-09-21T10:41:48;17.65;69.68
64198;SHT31;50512;53.666;9.700;2022-09-21T10:44:15;17.69;70.95
64198;SHT31;50512;53.666;9.700;2022-09-21T10:46:42;17.75;70.45
64198;SHT31;50512;53.666;9.700;2022-09-21T10:49:14;17.85;68.50
64198;SHT31;50512;53.666;9.700;2022-09-21T10:51:44;17.87;65.24
64198;SHT31;50512;53.666;9.700;2022-09-21T10:54:10;17.90;64.85
64198;SHT31;50512;53.666;9.700;2022-09-21T10:56:35;17.93;66.35
64198;SHT31;50512;53.666;9.700;2022-09-21T10:59:19;17.73;64.94
64198;SHT31;50512;53.666;9.700;2022-09-21T11:01:45;17.75;65.93
64198;SHT31;50512;53.666;9.700;2022-09-21T11:04:15;17.85;66.89
64198;SHT31;50512;53.666;9.700;2022-09-21T11:06:47;17.89;66.20
64198;SHT31;50512;53.666;9.700;2022-09-21T11:09:19;17.87;65.98
64198;SHT31;50512;53.666;9.700;2022-09-21T11:11:51;17.91;65.85
64198;SHT31;50512;53.666;9.700;2022-09-21T11:14:31;17.89;63.88
64198;SHT31;50512;53.666;9.700;2022-09-21T11:17:03;17.83;61.08
64198;SHT31;50512;53.666;9.700;2022-09-21T11:19:36;17.65;60.22
64198;SHT31;50512;53.666;9.700;2022-09-21T11:22:07;17.65;62.54
64198;SHT31;50512;53.666;9.700;2022-09-21T11:24:40;17.49;63.83
64198;SHT31;50512;53.666;9.700;2022-09-21T11:27:12;17.53;63.52
64198;SHT31;50512;53.666;9.700;2022-09-21T11:29:47;17.63;63.86
64198;SHT31;50512;53.666;9.700;2022-09-21T11:32:28;17.68;59.97
64198;SHT31;50512;53.666;9.700;2022-09-21T11:35:06;17.65;59.16
64198;SHT31;50512;53.666;9.700;2022-09-21T11:37:50;17.66;61.05
64198;SHT31;50512;53.666;9.700;2022-09-21T11:40:38;17.73;62.43
64198;SHT31;50512;53.666;9.700;2022-09-21T11:43:28;17.83;60.26
64198;SHT31;50512;53.666;9.700;2022-09-21T11:46:05;17.85;58.49
64198;SHT31;50512;53.666;9.700;2022-09-21T11:48:45;17.96;59.66
64198;SHT31;50512;53.666;9.700;2022-09-21T11:51:24;18.06;61.16
64198;SHT31;50512;53.666;9.700;2022-09-21T11:56:59;17.94;57.52
64198;SHT31;50512;53.666;9.700;2022-09-21T11:59:42;18.21;59.93
64198;SHT31;50512;53.666;9.700;2022-09-21T12:02:25;18.35;57.58
64198;SHT31;50512;53.666;9.700;2022-09-21T12:04:59;18.48;58.56
64198;SHT31;50512;53.666;9.700;2022-09-21T12:07:39;18.61;58.70
64198;SHT31;50512;53.666;9.700;2022-09-21T12:10:31;18.62;58.81
64198;SHT31;50512;53.666;9.700;2022-09-21T12:13:06;18.75;57.76
64198;SHT31;50512;53.666;9.700;2022-09-21T12:15:38;18.68;57.66
64198;SHT31;50512;53.666;9.700;2022-09-21T12:18:08;18.65;55.75
64198;SHT31;50512;53.666;9.700;2022-09-21T12:20:42;18.70;58.69
64198;SHT31;50512;53.666;9.700;2022-09-21T12:23:15;18.58;55.86
64198;SHT31;50512;53.666;9.700;2022-09-21T12:25:45;18.56;57.26
64198;SHT31;50512;53.666;9.700;2022-09-21T12:28:17;18.41;55.65
64198;SHT31;50512;53.666;9.700;2022-09-21T12:30:48;18.24;55.72
64198;SHT31;50512;53.666;9.700;2022-09-21T12:33:19;18.35;56.91
64198;SHT31;50512;53.666;9.700;2022-09-21T12:35:48;18.37;57.44
64198;SHT31;50512;53.666;9.700;2022-09-21T12:38:18;18.58;57.73
64198;SHT31;50512;53.666;9.700;2022-09-21T12:40:50;18.66;55.07
64198;SHT31;50512;53.666;9.700;2022-09-21T12:43:27;18.52;55.97
64198;SHT31;50512;53.666;9.700;2022-09-21T12:46:00;18.42;54.62
64198;SHT31;50512;53.666;9.700;2022-09-21T12:48:31;18.44;54.48
64198;SHT31;50512;53.666;9.700;2022-09-21T12:51:02;18.51;55.07
64198;SHT31;50512;53.666;9.700;2022-09-21T12:53:31;18.61;57.53
64198;SHT31;50512;53.666;9.700;2022-09-21T12:56:04;18.73;56.60
64198;SHT31;50512;53.666;9.700;2022-09-21T12:58:41;18.77;55.08
64198;SHT31;50512;53.666;9.700;2022-09-21T13:01:18;18.75;53.16
64198;SHT31;50512;53.666;9.700;2022-09-21T13:03:54;18.69;52.88
64198;SHT31;50512;53.666;9.700;2022-09-21T13:06:43;18.69;54.49
64198;SHT31;50512;53.666;9.700;2022-09-21T13:09:15;18.65;56.03
64198;SHT31;50512;53.666;9.700;2022-09-21T13:11:51;18.73;54.22
64198;SHT31;50512;53.666;9.700;2022-09-21T13:14:17;18.66;56.18
64198;SHT31;50512;53.666;9.700;2022-09-21T13:16:43;18.66;56.45
64198;SHT31;50512;53.666;9.700;2022-09-21T13:19:20;18.62;55.42
64198;SHT31;50512;53.666;9.700;2022-09-21T13:21:46;18.49;50.98
64198;SHT31;50512;53.666;9.700;2022-09-21T13:24:32;18.42;50.85
64198;SHT31;50512;53.666;9.700;2022-09-21T13:26:59;18.47;54.34
64198;SHT31;50512;53.666;9.700;2022-09-21T13:29:29;18.55;53.11
64198;SHT31;50512;53.666;9.700;2022-09-21T13:31:57;18.55;52.36
64198;SHT31;50512;53.666;9.700;2022-09-21T13:34:33;18.44;56.05
64198;SHT31;50512;53.666;9.700;2022-09-21T13:37:32;18.11;50.59
64198;SHT31;50512;53.666;9.700;2022-09-21T13:40:32;17.90;56.63
64198;SHT31;50512;53.666;9.700;2022-09-21T13:43:23;17.86;50.45
64198;SHT31;50512;53.666;9.700;2022-09-21T13:45:54;17.86;48.42
64198;SHT31;50512;53.666;9.700;2022-09-21T13:48:21;17.80;51.44
64198;SHT31;50512;53.666;9.700;2022-09-21T13:50:48;17.79;46.96
64198;SHT31;50512;53.666;9.700;2022-09-21T13:53:18;17.75;47.78
64198;SHT31;50512;53.666;9.700;2022-09-21T13:55:48;17.75;49.15
64198;SHT31;50512;53.666;9.700;2022-09-21T13:58:20;17.76;48.08
64198;SHT31;50512;53.666;9.700;2022-09-21T14:00:50;17.77;49.35
64198;SHT31;50512;53.666;9.700;2022-09-21T14:03:21;17.75;51.18
64198;SHT31;50512;53.666;9.700;2022-09-21T14:05:48;17.76;51.20
64198;SHT31;50512;53.666;9.700;2022-09-21T14:08:22;17.73;52.19
64198;SHT31;50512;53.666;9.700;2022-09-21T14:10:52;17.68;52.33
64198;SHT31;50512;53.666;9.700;2022-09-21T14:13:26;17.65;52.22
64198;SHT31;50512;53.666;9.700;2022-09-21T14:15:52;17.66;51.73
64198;SHT31;50512;53.666;9.700;2022-09-21T14:21:12;17.89;51.78
64198;SHT31;50512;53.666;9.700;2022-09-21T14:23:38;18.00;54.60
64198;SHT31;50512;53.666;9.700;2022-09-21T14:26:19;18.32;56.05
64198;SHT31;50512;53.666;9.700;2022-09-21T14:28:49;18.41;55.13
64198;SHT31;50512;53.666;9.700;2022-09-21T14:31:19;18.56;54.93
64198;SHT31;50512;53.666;9.700;2022-09-21T14:33:47;18.61;54.96
64198;SHT31;50512;53.666;9.700;2022-09-21T14:36:17;18.55;54.66
64198;SHT31;50512;53.666;9.700;2022-09-21T14:38:47;18.42;54.10
64198;SHT31;50512;53.666;9.700;2022-09-21T14:41:15;18.20;53.72
64198;SHT31;50512;53.666;9.700;2022-09-21T14:43:42;18.14;53.07
64198;SHT31;50512;53.666;9.700;2022-09-21T14:46:24;17.96;54.64
64198;SHT31;50512;53.666;9.700;2022-09-21T14:49:01;17.69;57.18
64198;SHT31;50512;53.666;9.700;2022-09-21T14:51:33;17.48;58.84
64198;SHT31;50512;53.666;9.700;2022-09-21T14:54:22;17.31;58.90
64198;SHT31;50512;53.666;9.700;2022-09-21T14:57:00;17.17;55.62
64198;SHT31;50512;53.666;9.700;2022-09-21T14:59:44;17.03;57.52
64198;SHT31;50512;53.666;9.700;2022-09-21T15:02:17;16.94;56.50
64198;SHT31;50512;53.666;9.700;2022-09-21T15:04:53;16.86;59.57
64198;SHT31;50512;53.666;9.700;2022-09-21T15:07:30;16.73;58.25
64198;SHT31;50512;53.666;9.700;2022-09-21T15:10:11;16.69;57.08
64198;SHT31;50512;53.666;9.700;2022-09-21T15:12:43;16.56;59.33
64198;SHT31;50512;53.666;9.700;2022-09-21T15:15:22;16.55;57.84
64198;SHT31;50512;53.666;9.700;2022-09-21T15:17:54;16.44;60.49
64198;SHT31;50512;53.666;9.700;2022-09-21T15:20:21;16.32;58.66
64198;SHT31;50512;53.666;9.700;2022-09-21T15:22:47;16.24;57.98
64198;SHT31;50512;53.666;9.700;2022-09-21T15:25:13;16.13;59.79
64198;SHT31;50512;53.666;9.700;2022-09-21T15:27:41;16.07;59.87
64198;SHT31;50512;53.666;9.700;2022-09-21T15:30:18;15.93;61.63
64198;SHT31;50512;53.666;9.700;2022-09-21T15:32:47;16.00;59.48
64198;SHT31;50512;53.666;9.700;2022-09-21T15:35:18;15.86;61.40
64198;SHT31;50512;53.666;9.700;2022-09-21T15:37:44;15.77;61.84
64198;SHT31;50512;53.666;9.700;2022-09-21T15:40:16;15.89;59.88
64198;SHT31;50512;53.666;9.700;2022-09-21T15:42:57;15.77;61.76
64198;SHT31;50512;53.666;9.700;2022-09-21T15:45:24;15.63;63.48
64198;SHT31;50512;53.666;9.700;2022-09-21T15:47:50;15.49;64.28
64198;SHT31;50512;53.666;9.700;2022-09-21T15:50:18;15.38;63.07
64198;SHT31;50512;53.666;9.700;2022-09-21T15:52:47;15.32;63.78
64198;SHT31;50512;53.666;9.700;2022-09-21T15:55:17;15.21;64.51
64198;SHT31;50512;53.666;9.700;2022-09-21T15:57:43;15.15;64.25
64198;SHT31;50512;53.666;9.700;2022-09-21T16:00:18;15.07;64.78
64198;SHT31;50512;53.666;9.700;2022-09-21T16:02:49;15.05;65.68
64198;SHT31;50512;53.666;9.700;2022-09-21T16:05:20;14.98;68.41